createdAt,value
2017-08-31T00:02:12.445Z,89.60
2017-08-31T00:04:40.598Z,90.40
2017-08-31T00:07:08.798Z,90.50
2017-08-31T00:09:36.951Z,90.70
2017-08-31T00:12:05.102Z,91.00
2017-08-31T00:14:33.282Z,90.90
2017-08-31T00:17:01.435Z,90.80
2017-08-31T00:19:29.590Z,90.70
2017-08-31T00:21:57.785Z,90.90
2017-08-31T00:24:25.953Z,90.60
2017-08-31T00:26:54.128Z,90.70
2017-08-31T00:29:22.317Z,90.60
2017-08-31T00:31:50.514Z,90.50
2017-08-31T00:34:18.735Z,90.70
2017-08-31T00:36:46.905Z,90.90
2017-08-31T00:39:15.094Z,91.10
2017-08-31T00:41:43.265Z,91.00
2017-08-31T00:44:11.470Z,91.20
2017-08-31T00:46:39.647Z,91.30
2017-08-31T00:49:07.820Z,91.30
2017-08-31T00:51:36.003Z,91.30
2017-08-31T00:54:04.173Z,91.30
2017-08-31T00:56:32.344Z,91.30
2017-08-31T00:59:00.519Z,91.20
2017-08-31T01:01:28.689Z,91.20
2017-08-31T01:03:56.862Z,91.20
2017-08-31T01:06:25.056Z,91.30
2017-08-31T01:08:53.225Z,91.50
2017-08-31T01:11:21.394Z,91.70
2017-08-31T01:13:49.576Z,91.80
2017-08-31T01:16:17.744Z,91.90
2017-08-31T01:18:45.946Z,91.70
2017-08-31T01:21:14.099Z,92.00
2017-08-31T01:23:42.271Z,91.90
2017-08-31T01:26:10.459Z,91.90
2017-08-31T01:28:38.614Z,91.90
2017-08-31T01:31:06.788Z,91.80
2017-08-31T01:33:34.970Z,91.70
2017-08-31T01:36:03.148Z,91.60
2017-08-31T01:38:31.317Z,91.90
2017-08-31T01:40:59.515Z,92.00
2017-08-31T01:43:27.690Z,92.40
2017-08-31T01:45:55.858Z,92.50
2017-08-31T01:48:24.061Z,92.60
2017-08-31T01:50:52.215Z,92.90
2017-08-31T01:53:20.366Z,92.80
2017-08-31T01:55:48.560Z,92.80
2017-08-31T01:58:16.726Z,93.00
2017-08-31T02:00:44.878Z,92.90
2017-08-31T02:03:13.055Z,92.80
2017-08-31T02:05:41.224Z,92.80
2017-08-31T02:08:09.396Z,92.80
2017-08-31T02:10:37.575Z,92.80
2017-08-31T02:13:05.722Z,93.00
2017-08-31T02:15:33.876Z,93.00
2017-08-31T02:18:02.054Z,92.90
2017-08-31T02:20:30.202Z,92.80
2017-08-31T02:22:58.347Z,93.00
2017-08-31T02:25:26.534Z,93.10
2017-08-31T02:27:54.686Z,93.20
2017-08-31T02:30:22.839Z,93.10
2017-08-31T02:32:51.040Z,93.10
2017-08-31T02:35:19.212Z,93.10
2017-08-31T02:37:48.126Z,93.20
2017-08-31T02:40:16.307Z,93.20
2017-08-31T02:42:44.483Z,93.30
2017-08-31T02:45:12.643Z,93.50
2017-08-31T02:47:40.821Z,93.60
2017-08-31T02:50:09.000Z,93.30
2017-08-31T02:52:37.159Z,93.60
2017-08-31T02:55:05.363Z,93.90
2017-08-31T02:57:33.518Z,93.60
2017-08-31T03:00:01.673Z,93.60
2017-08-31T03:02:29.859Z,93.60
2017-08-31T03:04:58.034Z,93.40
2017-08-31T03:07:26.186Z,93.40
2017-08-31T03:09:55.562Z,93.50
2017-08-31T03:12:23.728Z,93.50
2017-08-31T03:14:51.888Z,93.10
2017-08-31T03:17:20.088Z,92.90
2017-08-31T03:19:48.260Z,92.90
2017-08-31T03:22:16.419Z,93.20
2017-08-31T03:24:44.604Z,92.60
2017-08-31T03:27:12.758Z,92.70
2017-08-31T03:29:40.906Z,92.80
2017-08-31T03:32:09.113Z,92.80
2017-08-31T03:34:37.289Z,92.60
2017-08-31T03:37:05.441Z,92.80
2017-08-31T03:39:33.644Z,92.80
2017-08-31T03:42:01.802Z,92.60
2017-08-31T03:44:29.953Z,93.00
2017-08-31T03:46:58.135Z,92.60
2017-08-31T03:49:26.294Z,92.90
2017-08-31T03:51:54.452Z,92.60
2017-08-31T03:54:23.470Z,92.70
2017-08-31T03:56:51.627Z,92.80
2017-08-31T03:59:19.781Z,92.60
2017-08-31T04:01:47.977Z,92.00
2017-08-31T04:04:16.136Z,92.10
2017-08-31T04:06:44.306Z,92.30
2017-08-31T04:09:12.487Z,92.30
2017-08-31T04:11:40.657Z,92.10
2017-08-31T04:14:08.830Z,91.60
2017-08-31T04:16:37.019Z,91.60
2017-08-31T04:19:05.189Z,91.20
2017-08-31T04:21:33.353Z,91.50
2017-08-31T04:24:01.549Z,91.20
2017-08-31T04:26:30.472Z,91.40
2017-08-31T04:28:58.632Z,91.40
2017-08-31T04:31:26.814Z,91.50
2017-08-31T04:33:54.957Z,91.10
2017-08-31T04:36:23.129Z,91.10
2017-08-31T04:38:51.322Z,91.10
2017-08-31T04:41:20.254Z,90.90
2017-08-31T04:43:48.422Z,90.80
2017-08-31T04:46:16.617Z,91.10
2017-08-31T04:48:44.771Z,90.90
2017-08-31T04:51:12.927Z,90.80
2017-08-31T04:53:41.122Z,91.10
2017-08-31T04:56:09.296Z,91.30
2017-08-31T04:58:37.461Z,90.90
2017-08-31T05:01:05.645Z,91.00
2017-08-31T05:03:33.794Z,91.40
2017-08-31T05:06:01.965Z,90.90
2017-08-31T05:08:30.158Z,90.70
2017-08-31T05:10:58.331Z,90.30
2017-08-31T05:13:26.516Z,90.40
2017-08-31T05:15:54.715Z,90.30
2017-08-31T05:18:22.869Z,90.30
2017-08-31T05:20:51.025Z,90.20
2017-08-31T05:23:19.225Z,89.80
2017-08-31T05:25:47.400Z,89.00
2017-08-31T05:28:15.569Z,88.80
2017-08-31T05:30:43.765Z,88.70
2017-08-31T05:33:11.915Z,88.90
2017-08-31T05:35:40.085Z,89.00
2017-08-31T05:38:08.283Z,88.80
2017-08-31T05:40:36.435Z,89.10
2017-08-31T05:43:04.583Z,88.90
2017-08-31T05:45:32.765Z,89.60
2017-08-31T05:48:00.918Z,89.00
2017-08-31T05:50:29.071Z,89.10
2017-08-31T05:52:57.305Z,88.70
2017-08-31T05:55:25.471Z,88.00
2017-08-31T05:57:53.644Z,87.40
2017-08-31T06:00:21.824Z,87.30
2017-08-31T06:02:50.020Z,86.30
2017-08-31T06:05:18.192Z,87.10
2017-08-31T06:07:46.390Z,87.60
2017-08-31T06:10:14.562Z,86.90
2017-08-31T06:12:42.714Z,87.50
2017-08-31T06:15:10.912Z,87.70
2017-08-31T06:17:39.069Z,87.80
2017-08-31T06:20:07.248Z,88.20
2017-08-31T06:22:35.453Z,88.30
2017-08-31T06:25:03.613Z,88.20
2017-08-31T06:27:31.785Z,88.00
2017-08-31T06:29:59.962Z,88.10
2017-08-31T06:32:28.129Z,87.70
2017-08-31T06:34:56.282Z,87.50
2017-08-31T06:37:24.467Z,87.80
2017-08-31T06:39:52.622Z,86.80
2017-08-31T06:42:20.794Z,87.40
2017-08-31T06:44:48.968Z,87.20
2017-08-31T06:47:17.148Z,86.80
2017-08-31T06:49:45.320Z,85.50
2017-08-31T06:52:13.528Z,85.70
2017-08-31T06:54:41.697Z,85.20
2017-08-31T06:57:09.861Z,84.30
2017-08-31T06:59:38.045Z,84.00
2017-08-31T07:02:06.215Z,84.80
2017-08-31T07:04:34.384Z,85.40
2017-08-31T07:07:02.575Z,85.00
2017-08-31T07:09:30.744Z,84.50
2017-08-31T07:11:58.911Z,85.90
2017-08-31T07:14:27.109Z,86.00
2017-08-31T07:16:55.275Z,86.80
2017-08-31T07:19:23.423Z,87.90
2017-08-31T07:21:51.620Z,88.50
2017-08-31T07:24:19.795Z,88.40
2017-08-31T07:26:47.941Z,88.00
2017-08-31T07:29:16.138Z,87.80
2017-08-31T07:31:44.300Z,87.00
2017-08-31T07:34:12.476Z,86.70
2017-08-31T07:36:40.650Z,86.70
2017-08-31T07:39:08.809Z,84.80
2017-08-31T07:41:36.954Z,83.90
2017-08-31T07:44:05.159Z,83.40
2017-08-31T07:46:33.314Z,83.80
2017-08-31T07:49:01.464Z,82.60
2017-08-31T07:51:30.406Z,81.70
2017-08-31T07:53:58.576Z,81.70
2017-08-31T07:56:26.729Z,81.10
2017-08-31T07:58:55.256Z,80.30
2017-08-31T08:01:23.425Z,79.10
2017-08-31T08:03:51.600Z,79.30
2017-08-31T08:06:19.790Z,79.50
2017-08-31T08:08:48.755Z,80.00
2017-08-31T08:11:16.908Z,79.90
2017-08-31T08:13:45.412Z,79.40
2017-08-31T08:16:13.560Z,80.10
2017-08-31T08:18:41.725Z,79.00
2017-08-31T08:21:09.909Z,79.40
2017-08-31T08:23:38.054Z,79.50
2017-08-31T08:26:06.207Z,80.00
2017-08-31T08:28:34.402Z,78.90
2017-08-31T08:31:02.564Z,77.50
2017-08-31T08:33:30.706Z,77.50
2017-08-31T08:35:58.906Z,77.10
2017-08-31T08:38:27.054Z,76.60
2017-08-31T08:40:55.217Z,77.20
2017-08-31T08:43:23.408Z,76.50
2017-08-31T08:45:51.549Z,76.50
2017-08-31T08:48:19.698Z,76.30
2017-08-31T08:50:48.662Z,75.60
2017-08-31T08:53:16.809Z,75.50
2017-08-31T08:55:44.963Z,76.00
2017-08-31T08:58:13.157Z,75.50
2017-08-31T09:00:41.320Z,76.00
2017-08-31T09:03:09.481Z,74.90
2017-08-31T09:05:37.672Z,74.60
2017-08-31T09:08:05.814Z,74.70
2017-08-31T09:10:33.969Z,74.00
2017-08-31T09:13:02.147Z,73.70
2017-08-31T09:15:30.298Z,73.50
2017-08-31T09:17:58.462Z,73.70
2017-08-31T09:20:26.638Z,74.10
2017-08-31T09:22:54.804Z,75.30
2017-08-31T09:25:22.951Z,75.40
2017-08-31T09:27:51.163Z,75.60
2017-08-31T09:30:19.336Z,76.20
2017-08-31T09:32:47.478Z,76.00
2017-08-31T09:35:15.664Z,76.50
2017-08-31T09:37:43.824Z,76.20
2017-08-31T09:40:11.989Z,76.50
2017-08-31T09:42:40.158Z,76.30
2017-08-31T09:45:08.307Z,75.40
2017-08-31T09:47:36.456Z,74.90
2017-08-31T09:50:04.630Z,72.80
2017-08-31T09:52:32.775Z,73.10
2017-08-31T09:55:00.942Z,74.90
2017-08-31T09:57:29.118Z,75.20
2017-08-31T09:59:57.284Z,74.40
2017-08-31T10:02:25.430Z,73.50
2017-08-31T10:04:53.601Z,72.30
2017-08-31T10:07:21.764Z,71.40
2017-08-31T10:09:49.907Z,70.30
2017-08-31T10:12:18.086Z,69.30
2017-08-31T10:14:46.251Z,67.50
2017-08-31T10:17:14.397Z,67.10
2017-08-31T10:19:43.351Z,69.00
2017-08-31T10:22:11.494Z,68.20
2017-08-31T10:24:39.638Z,68.30
2017-08-31T10:27:07.818Z,67.20
2017-08-31T10:29:36.730Z,66.80
2017-08-31T10:32:04.874Z,66.70
2017-08-31T10:34:33.055Z,66.70
2017-08-31T10:37:01.203Z,66.90
2017-08-31T10:39:29.365Z,66.50
2017-08-31T10:41:57.542Z,66.00
2017-08-31T10:44:25.688Z,65.50
2017-08-31T10:46:53.869Z,65.50
2017-08-31T10:49:22.069Z,66.30
2017-08-31T10:51:50.225Z,65.90
2017-08-31T10:54:18.375Z,65.30
2017-08-31T10:56:46.572Z,65.10
2017-08-31T10:59:14.719Z,65.40
2017-08-31T11:01:42.890Z,66.30
2017-08-31T11:04:11.085Z,66.80
2017-08-31T11:06:39.236Z,66.10
2017-08-31T11:09:07.402Z,65.80
2017-08-31T11:11:35.591Z,65.50
2017-08-31T11:14:03.750Z,66.80
2017-08-31T11:16:31.922Z,67.60
2017-08-31T11:19:00.126Z,67.20
2017-08-31T11:21:28.281Z,67.00
2017-08-31T11:23:56.448Z,65.80
2017-08-31T11:26:24.615Z,64.10
2017-08-31T11:28:52.907Z,63.10
2017-08-31T11:31:21.074Z,59.60
2017-08-31T11:33:49.228Z,59.40
2017-08-31T11:36:17.466Z,58.30
2017-08-31T11:38:45.530Z,57.90
2017-08-31T11:41:13.722Z,58.30
2017-08-31T11:43:41.886Z,57.80
2017-08-31T11:46:10.050Z,58.00
2017-08-31T11:48:38.257Z,57.70
2017-08-31T11:51:06.412Z,56.10
2017-08-31T11:53:34.559Z,55.10
2017-08-31T11:56:02.738Z,56.10
2017-08-31T11:58:30.884Z,55.90
2017-08-31T12:00:59.049Z,55.60
2017-08-31T12:03:27.241Z,56.10
2017-08-31T12:05:55.387Z,55.60
2017-08-31T12:08:23.556Z,55.80
2017-08-31T12:10:51.728Z,55.10
2017-08-31T12:13:19.906Z,53.80
2017-08-31T12:15:48.054Z,53.20
2017-08-31T12:18:16.260Z,52.20
2017-08-31T12:20:44.421Z,51.20
2017-08-31T12:23:12.580Z,51.90
2017-08-31T12:25:40.777Z,52.20
2017-08-31T12:28:08.947Z,51.60
2017-08-31T12:30:37.086Z,51.70
2017-08-31T12:33:05.266Z,50.00
2017-08-31T12:35:33.420Z,48.60
2017-08-31T12:38:02.348Z,49.60
2017-08-31T12:40:30.841Z,49.60
2017-08-31T12:42:59.005Z,49.70
2017-08-31T12:45:27.150Z,50.30
2017-08-31T12:47:55.341Z,50.40
2017-08-31T12:50:23.487Z,50.10
2017-08-31T12:52:51.653Z,49.50
2017-08-31T12:55:19.828Z,50.40
2017-08-31T12:57:48.014Z,51.60
2017-08-31T13:00:16.180Z,52.30
2017-08-31T13:02:44.919Z,52.10
2017-08-31T13:08:12.001Z,52.80
2017-08-31T13:10:40.160Z,53.10
2017-08-31T13:13:08.330Z,53.00
2017-08-31T13:15:36.534Z,54.00
2017-08-31T13:18:04.696Z,53.20
2017-08-31T13:20:32.864Z,52.60
2017-08-31T13:23:01.042Z,52.30
2017-08-31T13:25:29.212Z,52.30
2017-08-31T13:27:57.350Z,51.60
2017-08-31T13:30:25.541Z,51.80
2017-08-31T13:32:53.705Z,52.60
2017-08-31T13:35:21.879Z,53.50
2017-08-31T13:37:50.049Z,53.70
2017-08-31T13:40:18.957Z,54.40
2017-08-31T13:42:47.102Z,54.40
2017-08-31T13:45:16.052Z,56.10
2017-08-31T13:47:44.194Z,56.10
2017-08-31T13:50:12.349Z,56.70
2017-08-31T13:52:40.523Z,57.20
2017-08-31T13:55:08.668Z,57.20
2017-08-31T13:57:36.818Z,57.20
2017-08-31T14:00:04.992Z,56.70
2017-08-31T14:02:33.134Z,57.40
2017-08-31T14:05:01.300Z,57.80
2017-08-31T14:07:29.474Z,57.90
2017-08-31T14:09:57.640Z,57.70
2017-08-31T14:12:25.784Z,58.30
2017-08-31T14:14:53.984Z,58.80
2017-08-31T14:17:22.135Z,58.50
2017-08-31T14:19:50.286Z,59.20
2017-08-31T14:22:18.472Z,59.50
2017-08-31T14:24:46.623Z,60.00
2017-08-31T14:27:14.771Z,60.40
2017-08-31T14:29:42.938Z,61.20
2017-08-31T14:32:11.088Z,61.80
2017-08-31T14:34:39.255Z,62.20
2017-08-31T14:37:07.444Z,64.20
2017-08-31T14:39:35.592Z,66.30
2017-08-31T14:42:03.765Z,68.10
2017-08-31T14:44:31.931Z,71.30
2017-08-31T14:47:00.094Z,72.20
2017-08-31T14:49:28.260Z,72.40
2017-08-31T14:51:56.431Z,73.00
2017-08-31T14:54:24.574Z,72.20
2017-08-31T14:56:52.741Z,72.20
2017-08-31T14:59:20.913Z,72.00
2017-08-31T15:01:49.844Z,72.40
2017-08-31T15:04:18.020Z,72.40
2017-08-31T15:06:46.213Z,72.70
2017-08-31T15:09:14.378Z,71.90
2017-08-31T15:11:42.525Z,72.30
2017-08-31T15:14:10.703Z,72.30
2017-08-31T15:16:38.845Z,70.90
2017-08-31T15:19:07.012Z,71.30
2017-08-31T15:21:35.208Z,71.30
2017-08-31T15:24:03.363Z,72.00
2017-08-31T15:26:31.524Z,70.00
2017-08-31T15:28:59.700Z,69.50
2017-08-31T15:31:27.873Z,68.70
2017-08-31T15:33:56.075Z,68.20
2017-08-31T15:36:24.286Z,68.00
2017-08-31T15:38:52.448Z,68.10
2017-08-31T15:41:20.590Z,67.70
2017-08-31T15:43:48.771Z,68.10
2017-08-31T15:46:16.933Z,68.10
2017-08-31T15:48:45.083Z,68.10
2017-08-31T15:51:13.269Z,67.00
2017-08-31T15:53:41.464Z,67.90
2017-08-31T15:56:09.614Z,68.60
2017-08-31T15:58:37.783Z,69.90
2017-08-31T16:01:05.931Z,70.20
2017-08-31T16:03:34.093Z,71.00
2017-08-31T16:06:02.283Z,72.60
2017-08-31T16:08:30.445Z,72.50
2017-08-31T16:10:58.604Z,70.80
2017-08-31T16:13:26.778Z,70.40
2017-08-31T16:15:54.945Z,69.60
2017-08-31T16:18:23.104Z,69.00
2017-08-31T16:20:51.276Z,69.30
2017-08-31T16:23:19.420Z,67.80
2017-08-31T16:25:47.591Z,67.70
2017-08-31T16:28:15.785Z,67.20
2017-08-31T16:30:43.949Z,67.30
2017-08-31T16:33:12.120Z,66.60
2017-08-31T16:35:40.314Z,66.70
2017-08-31T16:38:08.476Z,66.70
2017-08-31T16:40:36.638Z,66.50
2017-08-31T16:43:04.829Z,67.40
2017-08-31T16:45:32.988Z,67.70
2017-08-31T16:48:01.149Z,68.60
2017-08-31T16:50:29.324Z,69.00
2017-08-31T16:52:57.481Z,69.20
2017-08-31T16:55:25.628Z,69.00
2017-08-31T16:57:54.588Z,69.10
2017-08-31T17:00:22.738Z,69.10
2017-08-31T17:02:50.901Z,68.80
2017-08-31T17:05:19.078Z,69.30
2017-08-31T17:07:47.221Z,69.50
2017-08-31T17:10:15.385Z,70.10
2017-08-31T17:12:43.562Z,70.30
2017-08-31T17:15:11.703Z,70.50
2017-08-31T17:17:39.846Z,70.80
2017-08-31T17:20:08.036Z,71.10
2017-08-31T17:22:36.192Z,71.20
2017-08-31T17:25:04.336Z,71.70
2017-08-31T17:27:32.510Z,72.30
2017-08-31T17:30:00.753Z,72.00
2017-08-31T17:32:28.949Z,71.80
2017-08-31T17:34:57.130Z,70.80
2017-08-31T17:37:25.276Z,70.60
2017-08-31T17:39:53.440Z,70.80
2017-08-31T17:42:21.636Z,70.30
2017-08-31T17:44:49.800Z,69.80
2017-08-31T17:47:17.948Z,69.90
2017-08-31T17:49:46.121Z,70.30
2017-08-31T17:52:14.280Z,70.50
2017-08-31T17:54:42.445Z,70.00
2017-08-31T17:57:10.633Z,70.30
2017-08-31T17:59:38.778Z,70.00
2017-08-31T18:02:06.941Z,69.80
2017-08-31T18:04:35.132Z,69.20
2017-08-31T18:07:03.277Z,69.30
2017-08-31T18:09:31.427Z,69.40
2017-08-31T18:11:59.598Z,69.00
2017-08-31T18:14:27.761Z,68.60
2017-08-31T18:16:55.942Z,68.40
2017-08-31T18:19:24.121Z,69.00
2017-08-31T18:21:52.263Z,68.60
2017-08-31T18:24:20.413Z,68.40
2017-08-31T18:26:48.605Z,68.60
2017-08-31T18:29:16.746Z,69.00
2017-08-31T18:31:44.913Z,69.20
2017-08-31T18:34:13.089Z,69.50
2017-08-31T18:36:41.229Z,69.60
2017-08-31T18:39:09.370Z,69.70
2017-08-31T18:41:37.549Z,70.00
2017-08-31T18:44:05.789Z,69.60
2017-08-31T18:46:33.947Z,69.90
2017-08-31T18:49:02.136Z,69.90
2017-08-31T18:51:30.281Z,69.40
2017-08-31T18:53:58.423Z,69.50
2017-08-31T18:56:26.599Z,69.60
2017-08-31T18:58:54.746Z,69.60
2017-08-31T19:01:22.913Z,69.80
2017-08-31T19:03:51.082Z,69.70
2017-08-31T19:06:19.245Z,70.10
2017-08-31T19:08:47.406Z,70.20
2017-08-31T19:11:15.593Z,70.40
2017-08-31T19:13:43.734Z,70.60
2017-08-31T19:16:11.889Z,70.80
2017-08-31T19:18:40.851Z,70.90
2017-08-31T19:21:09.013Z,70.80
2017-08-31T19:23:37.154Z,70.90
2017-08-31T19:26:05.353Z,71.10
2017-08-31T19:28:33.516Z,71.10
2017-08-31T19:31:01.658Z,71.20
2017-08-31T19:33:29.829Z,71.40
2017-08-31T19:35:57.974Z,71.30
2017-08-31T19:38:26.117Z,70.90
2017-08-31T19:40:54.286Z,71.20
2017-08-31T19:43:22.449Z,71.00
2017-08-31T19:45:50.595Z,70.90
2017-08-31T19:48:18.770Z,70.80
2017-08-31T19:50:46.941Z,71.80
2017-08-31T19:53:15.104Z,71.00
2017-08-31T19:55:43.278Z,71.00
2017-08-31T19:58:11.425Z,71.10
2017-08-31T20:00:39.570Z,71.20
2017-08-31T20:03:07.754Z,71.30
2017-08-31T20:05:36.161Z,71.40
2017-08-31T20:08:04.322Z,71.40
2017-08-31T20:10:32.513Z,71.50
2017-08-31T20:13:00.657Z,71.10
2017-08-31T20:15:28.802Z,71.20
2017-08-31T20:17:56.995Z,71.30
2017-08-31T20:20:25.161Z,71.80
2017-08-31T20:22:53.329Z,71.70
2017-08-31T20:25:22.285Z,72.00
2017-08-31T20:27:50.434Z,71.80
2017-08-31T20:30:18.600Z,72.10
2017-08-31T20:32:46.789Z,71.80
2017-08-31T20:35:14.960Z,72.40
2017-08-31T20:37:43.120Z,72.80
2017-08-31T20:40:11.291Z,72.70
2017-08-31T20:42:39.436Z,72.70
2017-08-31T20:45:08.351Z,73.00
2017-08-31T20:47:36.525Z,72.80
2017-08-31T20:50:04.676Z,73.20
2017-08-31T20:52:32.822Z,73.20
2017-08-31T20:55:01.012Z,74.10
2017-08-31T20:57:29.172Z,73.30
2017-08-31T20:59:57.336Z,73.00
2017-08-31T21:02:25.522Z,73.10
2017-08-31T21:04:53.670Z,72.50
2017-08-31T21:07:21.832Z,72.20
2017-08-31T21:09:49.997Z,72.40
2017-08-31T21:12:18.141Z,72.50
2017-08-31T21:14:46.307Z,72.30
2017-08-31T21:17:14.479Z,73.30
2017-08-31T21:19:42.633Z,72.90
2017-08-31T21:22:10.778Z,72.60
2017-08-31T21:24:39.839Z,72.70
2017-08-31T21:27:08.767Z,73.20
2017-08-31T21:29:36.940Z,73.20
2017-08-31T21:32:05.134Z,73.80
2017-08-31T21:34:32.834Z,74.10
2017-08-31T21:37:00.978Z,74.10
2017-08-31T21:39:29.164Z,73.90
2017-08-31T21:41:57.301Z,74.20
2017-08-31T21:44:25.445Z,73.90
2017-08-31T21:46:53.637Z,74.10
2017-08-31T21:49:21.803Z,73.80
2017-08-31T21:51:50.728Z,74.30
2017-08-31T21:54:18.926Z,74.10
2017-08-31T21:56:47.092Z,74.70
2017-08-31T21:59:15.253Z,75.00
2017-08-31T22:01:43.418Z,75.10
2017-08-31T22:04:11.599Z,74.90
2017-08-31T22:06:39.742Z,74.90
2017-08-31T22:09:07.944Z,75.00
2017-08-31T22:11:36.107Z,74.90
2017-08-31T22:14:04.271Z,75.00
2017-08-31T22:16:32.460Z,75.50
2017-08-31T22:19:00.621Z,75.50
2017-08-31T22:21:28.762Z,75.30
2017-08-31T22:23:56.952Z,75.10
2017-08-31T22:26:25.120Z,74.90
2017-08-31T22:28:54.043Z,74.60
2017-08-31T22:31:22.229Z,74.50
2017-08-31T22:33:50.384Z,74.70
2017-08-31T22:36:18.527Z,74.70
2017-08-31T22:38:46.726Z,74.90
2017-08-31T22:41:14.874Z,74.40
2017-08-31T22:43:43.022Z,74.50
2017-08-31T22:46:11.198Z,74.50
2017-08-31T22:48:39.366Z,74.30
2017-08-31T22:51:07.512Z,74.10
2017-08-31T22:53:35.679Z,74.00
2017-08-31T22:56:03.831Z,74.20
2017-08-31T22:58:43.833Z,74.40
2017-08-31T23:01:11.995Z,74.40
2017-08-31T23:03:40.983Z,74.60
2017-08-31T23:06:09.177Z,74.80
2017-08-31T23:08:37.347Z,74.70
2017-08-31T23:11:05.509Z,75.00
2017-08-31T23:13:33.681Z,74.90
2017-08-31T23:16:01.844Z,74.50
2017-08-31T23:18:29.995Z,74.80
2017-08-31T23:20:58.212Z,75.00
2017-08-31T23:23:26.356Z,74.90
2017-08-31T23:25:54.511Z,74.80
2017-08-31T23:28:22.701Z,75.30
2017-08-31T23:30:50.871Z,75.60
2017-08-31T23:33:19.805Z,75.30
2017-08-31T23:35:48.008Z,75.20
2017-08-31T23:38:16.171Z,75.40
2017-08-31T23:40:44.317Z,75.40
2017-08-31T23:43:12.510Z,75.60
2017-08-31T23:45:40.655Z,75.60
2017-08-31T23:48:10.896Z,75.50
2017-08-31T23:50:39.089Z,76.30
2017-08-31T23:53:07.257Z,75.30
2017-08-31T23:55:35.441Z,75.10
2017-08-31T23:58:03.696Z,75.50
